createdAt,value
2022-09-07T00:00:01.165Z,18
2022-09-07T00:10:00.911Z,17.5
2022-09-07T00:20:00.905Z,17.5
2022-09-07T00:30:00.729Z,18
2022-09-07T00:40:00.742Z,17.5
2022-09-07T00:50:00.939Z,17.5
2022-09-07T01:00:00.985Z,17.5
2022-09-07T01:10:00.876Z,16.5
2022-09-07T01:20:00.884Z,17
2022-09-07T01:30:00.965Z,16.5
2022-09-07T01:40:00.716Z,17
2022-09-07T01:50:00.797Z,16.5
2022-09-07T02:00:00.686Z,16.5
2022-09-07T02:10:00.782Z,16.5
2022-09-07T02:20:00.671Z,16.5
2022-09-07T02:30:00.774Z,16.5
2022-09-07T02:40:00.796Z,16.5
2022-09-07T02:50:00.831Z,16.5
2022-09-07T03:00:00.714Z,17
2022-09-07T03:10:00.808Z,16.5
2022-09-07T03:20:00.910Z,16.5
2022-09-07T03:30:00.807Z,16.5
2022-09-07T03:40:00.964Z,16.5
2022-09-07T03:50:00.820Z,16.5
2022-09-07T04:00:00.921Z,16.5
2022-09-07T04:10:00.819Z,16.5
2022-09-07T04:20:00.893Z,16.5
2022-09-07T04:30:00.793Z,16.5
2022-09-07T04:40:00.981Z,16.5
2022-09-07T04:50:01.014Z,16.5
2022-09-07T05:00:00.883Z,16.5
2022-09-07T05:10:00.987Z,16.5
2022-09-07T05:20:00.888Z,16.5
2022-09-07T05:30:00.990Z,16
2022-09-07T05:40:00.897Z,16
2022-09-07T05:50:00.991Z,16
2022-09-07T06:00:01.077Z,16
2022-09-07T06:20:01.076Z,16
2022-09-07T06:30:00.966Z,17
2022-09-07T06:40:01.103Z,17
2022-09-07T06:50:00.979Z,20.5
2022-09-07T07:00:01.059Z,24
2022-09-07T07:10:00.960Z,26
2022-09-07T07:20:01.060Z,26
2022-09-07T07:30:01.158Z,27
2022-09-07T07:40:17.434Z,28
2022-09-07T08:00:01.091Z,23.5
2022-09-07T08:10:01.178Z,25
2022-09-07T08:20:01.240Z,27
2022-09-07T08:30:01.162Z,29
2022-09-07T08:40:01.148Z,27.5
2022-09-07T08:50:01.185Z,26
2022-09-07T09:00:01.116Z,24.5
2022-09-07T09:10:01.184Z,24.5
2022-09-07T09:20:01.145Z,27
2022-09-07T09:30:01.219Z,23.5
2022-09-07T09:40:02.697Z,27.5
2022-09-07T09:50:01.220Z,26
2022-09-07T10:00:04.169Z,25.5
2022-09-07T10:10:01.218Z,24
2022-09-07T10:20:01.359Z,24
2022-09-07T10:30:01.217Z,24
2022-09-07T10:40:01.382Z,24
2022-09-07T11:00:09.255Z,24
2022-09-07T11:10:01.404Z,22.5
2022-09-07T11:20:01.358Z,22.5
2022-09-07T11:30:01.384Z,23.5
2022-09-07T11:40:01.459Z,23
2022-09-07T11:50:01.484Z,25
2022-09-07T12:00:01.473Z,24.5
2022-09-07T12:10:01.405Z,24.5
2022-09-07T12:20:01.309Z,24.5
2022-09-07T12:30:01.378Z,23.5
2022-09-07T12:40:01.690Z,24
2022-09-07T12:50:01.409Z,23.5
2022-09-07T13:00:01.803Z,24
2022-09-07T13:10:01.426Z,24
2022-09-07T13:20:01.551Z,25
2022-09-07T13:30:01.421Z,24
2022-09-07T13:40:01.668Z,23
2022-09-07T13:50:01.419Z,23
2022-09-07T14:00:01.548Z,23
2022-09-07T14:10:01.412Z,22.5
2022-09-07T14:20:01.949Z,21.5
2022-09-07T14:30:02.399Z,21.5
2022-09-07T14:40:01.641Z,21.5
2022-09-07T14:50:02.596Z,21.5
2022-09-07T15:00:01.538Z,21
2022-09-07T15:10:01.601Z,20.5
2022-09-07T15:20:01.513Z,20.5
2022-09-07T15:30:01.590Z,20.5
2022-09-07T15:40:02.040Z,21
2022-09-07T15:50:01.620Z,20.5
2022-09-07T16:00:02.700Z,19.5
2022-09-07T16:10:02.723Z,18.5
2022-09-07T16:20:02.415Z,18.5
2022-09-07T16:30:01.568Z,17.5
2022-09-07T16:40:01.744Z,17.5
2022-09-07T16:50:01.608Z,16.5
2022-09-07T17:00:01.768Z,17
2022-09-07T17:10:01.644Z,16.5
2022-09-07T17:20:01.778Z,16.5
2022-09-07T17:30:01.655Z,16.5
2022-09-07T17:40:05.181Z,17
2022-09-07T17:50:01.661Z,17
2022-09-07T18:00:17.111Z,17
2022-09-07T18:10:01.654Z,18
2022-09-07T18:20:01.773Z,18
2022-09-07T18:30:01.639Z,17.5
2022-09-07T18:40:02.331Z,17.5
2022-09-07T18:50:02.440Z,17.5
2022-09-07T19:00:01.782Z,17
2022-09-07T19:10:01.853Z,16.5
2022-09-07T19:20:01.768Z,16.5
2022-09-07T19:30:01.852Z,16.5
2022-09-07T19:40:01.899Z,16.5
2022-09-07T19:50:01.859Z,16.5
2022-09-07T20:00:01.787Z,16.5
2022-09-07T20:10:01.861Z,16
2022-09-07T20:20:01.955Z,16
2022-09-07T20:30:01.845Z,16
2022-09-07T20:40:02.014Z,15.5
2022-09-07T20:50:01.843Z,16
2022-09-07T21:00:01.952Z,16
2022-09-07T21:10:06.014Z,16
2022-09-07T21:20:01.966Z,16
2022-09-07T21:30:01.828Z,15.5
2022-09-07T21:40:02.046Z,15.5
2022-09-07T21:50:02.554Z,15.5
2022-09-07T22:00:01.934Z,15.5
2022-09-07T22:10:02.065Z,15
2022-09-07T22:20:01.984Z,15
2022-09-07T22:30:02.050Z,15
2022-09-07T22:40:02.051Z,15
2022-09-07T22:50:02.065Z,15
2022-09-07T23:00:01.969Z,15
2022-09-07T23:10:02.040Z,15
2022-09-07T23:20:02.024Z,15
2022-09-07T23:30:02.038Z,15
2022-09-07T23:40:02.228Z,15
2022-09-07T23:50:02.045Z,15
